Terminal Aerodrome Forecast
Issued by NWS Huntsville, AL

Current Version | Previous Version | Text Only | Print | Product List | Glossary On
Versions: 1 2 3 4 5 6 7 8 9 10 11 12 13
000
FTUS44 KHUN 191730
TAFMSL
TAF
KMSL 191730Z 1918/2018 06010G18KT P6SM SKC
     FM200000 09005KT P6SM SKC
     FM201400 12005KT P6SM FEW250=

USA.gov is the U.S. government's official web portal to all federal, state and local government web resources and services.